createdAt,value
2018-10-01T00:00:11.002Z,15.7
2018-10-01T00:00:37.139Z,15.73
2018-10-01T00:01:03.291Z,15.72
2018-10-01T00:01:29.430Z,15.67
2018-10-01T00:01:55.553Z,15.62
2018-10-01T00:02:21.697Z,15.54
2018-10-01T00:02:47.830Z,15.57
2018-10-01T00:03:13.971Z,15.57
2018-10-01T00:03:40.160Z,15.51
2018-10-01T00:04:06.330Z,15.49
2018-10-01T00:04:32.462Z,15.59
2018-10-01T00:04:58.588Z,15.54
2018-10-01T00:05:24.793Z,15.49
2018-10-01T00:05:50.926Z,15.47
2018-10-01T00:06:17.084Z,15.47
2018-10-01T00:06:43.222Z,15.47
2018-10-01T00:07:09.355Z,15.49
2018-10-01T00:07:35.488Z,15.46
2018-10-01T00:08:01.627Z,15.55
2018-10-01T00:08:27.785Z,15.55
2018-10-01T00:08:53.924Z,15.51
2018-10-01T00:09:20.051Z,15.55
2018-10-01T00:09:46.187Z,15.46
2018-10-01T00:10:12.327Z,15.51
2018-10-01T00:10:38.475Z,15.51
2018-10-01T00:11:04.602Z,15.52
2018-10-01T00:11:30.784Z,15.47
2018-10-01T00:11:56.917Z,15.51
2018-10-01T00:12:23.074Z,15.62
2018-10-01T00:12:49.226Z,15.49
2018-10-01T00:13:15.395Z,15.47
2018-10-01T00:13:41.582Z,15.54
2018-10-01T00:14:07.728Z,15.4
2018-10-01T00:14:33.856Z,15.52
2018-10-01T00:14:59.998Z,15.51
2018-10-01T00:15:26.154Z,15.58
2018-10-01T00:15:52.307Z,15.51
2018-10-01T00:16:18.442Z,15.44
2018-10-01T00:16:44.580Z,15.58
2018-10-01T00:17:10.747Z,15.57
2018-10-01T00:17:36.924Z,15.55
2018-10-01T00:18:03.057Z,15.54
2018-10-01T00:18:29.214Z,15.52
2018-10-01T00:18:55.347Z,15.57
2018-10-01T00:19:21.479Z,15.55
2018-10-01T00:19:47.634Z,15.64
2018-10-01T00:20:13.784Z,15.59
2018-10-01T00:20:39.948Z,15.65
2018-10-01T00:21:06.085Z,15.52
2018-10-01T00:21:32.253Z,15.44
2018-10-01T00:21:58.402Z,15.54
2018-10-01T00:22:24.565Z,15.55
2018-10-01T00:22:50.705Z,15.57
2018-10-01T00:23:16.844Z,15.52
2018-10-01T00:23:42.971Z,15.54
2018-10-01T00:24:09.141Z,15.52
2018-10-01T00:24:35.280Z,15.57
2018-10-01T00:25:01.437Z,15.54
2018-10-01T00:25:27.570Z,15.52
2018-10-01T00:25:53.697Z,15.47
2018-10-01T00:26:19.874Z,15.49
2018-10-01T00:26:46.007Z,15.52
2018-10-01T00:27:12.147Z,15.52
2018-10-01T00:27:38.275Z,15.47
2018-10-01T00:28:04.406Z,15.46
2018-10-01T00:28:30.566Z,15.54
2018-10-01T00:28:56.723Z,15.51
2018-10-01T00:29:22.856Z,15.54
2018-10-01T00:29:48.995Z,15.51
2018-10-01T00:30:15.127Z,15.55
2018-10-01T00:30:41.266Z,15.57
2018-10-01T00:31:07.387Z,15.47
2018-10-01T00:31:33.523Z,15.49
2018-10-01T00:31:59.655Z,15.58
2018-10-01T00:32:25.792Z,15.52
2018-10-01T00:32:51.925Z,15.55
2018-10-01T00:33:18.056Z,15.57
2018-10-01T00:33:44.215Z,15.52
2018-10-01T00:34:10.367Z,15.49
2018-10-01T00:34:36.530Z,15.58
2018-10-01T00:35:02.664Z,15.57
2018-10-01T00:35:28.796Z,15.59
2018-10-01T00:35:54.949Z,15.55
2018-10-01T00:36:21.077Z,15.51
2018-10-01T00:36:47.210Z,15.51
2018-10-01T00:37:13.371Z,15.55
2018-10-01T00:37:39.503Z,15.57
2018-10-01T00:38:05.636Z,15.55
2018-10-01T00:38:31.827Z,15.52
2018-10-01T00:38:57.953Z,15.46
2018-10-01T00:39:24.083Z,15.44
2018-10-01T00:39:50.222Z,15.46
2018-10-01T00:40:16.411Z,15.49
2018-10-01T00:40:42.507Z,15.55
2018-10-01T00:41:08.676Z,15.44
2018-10-01T00:41:34.790Z,15.47
2018-10-01T00:42:00.914Z,15.44
2018-10-01T00:42:27.096Z,15.46
2018-10-01T00:42:53.231Z,15.4
2018-10-01T00:43:19.407Z,15.42
2018-10-01T00:43:45.552Z,15.46
2018-10-01T00:44:11.668Z,15.39
2018-10-01T00:44:37.830Z,15.49
2018-10-01T00:45:03.984Z,15.44
2018-10-01T00:45:30.118Z,15.59
2018-10-01T00:45:56.253Z,15.47
2018-10-01T00:46:22.385Z,15.49
2018-10-01T00:46:48.543Z,15.46
2018-10-01T00:47:14.702Z,15.47
2018-10-01T00:47:40.837Z,15.46
2018-10-01T00:48:07.027Z,15.36
2018-10-01T00:48:33.181Z,15.52
2018-10-01T00:48:59.320Z,15.46
2018-10-01T00:49:25.447Z,15.55
2018-10-01T00:49:51.584Z,15.4
2018-10-01T00:50:17.713Z,15.43
2018-10-01T00:50:43.867Z,15.52
2018-10-01T00:51:10.009Z,15.55
2018-10-01T00:51:36.144Z,15.47
2018-10-01T00:52:02.272Z,15.58
2018-10-01T00:52:28.398Z,15.59
2018-10-01T00:52:54.551Z,15.47
2018-10-01T00:53:20.684Z,15.51
2018-10-01T00:53:46.823Z,15.54
2018-10-01T00:54:12.955Z,15.58
2018-10-01T00:54:39.112Z,15.46
2018-10-01T00:55:05.243Z,15.43
2018-10-01T00:55:31.381Z,15.43
2018-10-01T00:55:57.540Z,15.43
2018-10-01T00:56:23.677Z,15.42
2018-10-01T00:56:49.810Z,15.47
2018-10-01T00:57:15.941Z,15.49
2018-10-01T00:57:42.119Z,15.44
2018-10-01T00:58:08.249Z,15.37
2018-10-01T00:58:34.433Z,15.47
2018-10-01T00:59:00.566Z,15.4
2018-10-01T00:59:26.690Z,15.54
2018-10-01T00:59:52.828Z,15.49
2018-10-01T01:00:18.971Z,15.54
2018-10-01T01:00:45.122Z,15.47
2018-10-01T01:01:11.271Z,15.51
2018-10-01T01:01:37.409Z,15.49
2018-10-01T01:02:03.537Z,15.49
2018-10-01T01:02:29.689Z,15.43
2018-10-01T01:02:55.871Z,15.46
2018-10-01T01:03:22.000Z,15.44
2018-10-01T01:03:48.128Z,15.35
2018-10-01T01:04:14.291Z,15.46
2018-10-01T01:04:40.422Z,15.4
2018-10-01T01:05:06.562Z,15.31
2018-10-01T01:05:32.690Z,15.31
2018-10-01T01:05:58.844Z,15.4
2018-10-01T01:06:24.980Z,15.43
2018-10-01T01:06:51.115Z,15.42
2018-10-01T01:07:17.299Z,15.44
2018-10-01T01:07:43.434Z,15.36
2018-10-01T01:08:09.563Z,15.46
2018-10-01T01:08:35.711Z,15.39
2018-10-01T01:09:01.848Z,15.43
2018-10-01T01:09:28.006Z,15.42
2018-10-01T01:09:54.137Z,15.49
2018-10-01T01:10:20.267Z,15.47
2018-10-01T01:10:46.425Z,15.49
2018-10-01T01:11:12.580Z,15.47
2018-10-01T01:11:38.716Z,15.42
2018-10-01T01:12:04.849Z,15.43
2018-10-01T01:12:30.981Z,15.47
2018-10-01T01:12:57.137Z,15.36
2018-10-01T01:13:23.265Z,15.43
2018-10-01T01:13:49.400Z,15.44
2018-10-01T01:14:15.557Z,15.37
2018-10-01T01:14:41.694Z,15.4
2018-10-01T01:15:07.849Z,15.42
2018-10-01T01:15:34.006Z,15.52
2018-10-01T01:16:00.142Z,15.51
2018-10-01T01:16:26.283Z,15.51
2018-10-01T01:16:52.428Z,15.52
2018-10-01T01:17:18.562Z,15.47
2018-10-01T01:17:44.697Z,15.42
2018-10-01T01:18:10.834Z,15.44
2018-10-01T01:18:36.970Z,15.47
2018-10-01T01:19:03.127Z,15.39
2018-10-01T01:19:29.265Z,15.39
2018-10-01T01:19:55.392Z,15.42
2018-10-01T01:20:21.531Z,15.37
2018-10-01T01:20:47.684Z,15.44
2018-10-01T01:21:13.813Z,15.33
2018-10-01T01:21:39.948Z,15.33
2018-10-01T01:22:06.110Z,15.37
2018-10-01T01:22:32.246Z,15.47
2018-10-01T01:22:58.387Z,15.33
2018-10-01T01:23:24.520Z,15.35
2018-10-01T01:23:50.652Z,15.36
2018-10-01T01:24:16.805Z,15.46
2018-10-01T01:24:42.962Z,15.4
2018-10-01T01:25:09.164Z,15.29
2018-10-01T01:25:35.325Z,15.24
2018-10-01T01:26:01.497Z,15.29
2018-10-01T01:26:27.642Z,15.27
2018-10-01T01:26:53.767Z,15.37
2018-10-01T01:27:19.958Z,15.28
2018-10-01T01:27:46.093Z,15.36
2018-10-01T01:28:12.246Z,15.28
2018-10-01T01:28:38.378Z,15.35
2018-10-01T01:29:04.523Z,15.19
2018-10-01T01:29:30.697Z,15.11
2018-10-01T01:29:56.850Z,15.15
2018-10-01T01:30:22.988Z,15.04
2018-10-01T01:30:49.139Z,15.07
2018-10-01T01:31:15.326Z,15.15
2018-10-01T01:31:41.457Z,15.1
2018-10-01T01:32:07.598Z,15.06
2018-10-01T01:32:33.733Z,15.1
2018-10-01T01:32:59.865Z,15.06
2018-10-01T01:33:26.024Z,15.14
2018-10-01T01:33:52.153Z,15.18
2018-10-01T01:34:18.291Z,15.18
2018-10-01T01:34:44.423Z,15.15
2018-10-01T01:35:10.601Z,15.17
2018-10-01T01:35:36.732Z,15.22
2018-10-01T01:36:02.871Z,15.17
2018-10-01T01:36:29.026Z,15.1
2018-10-01T01:36:55.160Z,15.09
2018-10-01T01:37:21.315Z,15
2018-10-01T01:37:47.448Z,14.96
2018-10-01T01:38:13.583Z,15.06
2018-10-01T01:38:39.721Z,15
2018-10-01T01:39:05.879Z,15.04
2018-10-01T01:39:32.014Z,15
2018-10-01T01:39:58.142Z,14.99
2018-10-01T01:40:24.307Z,15.07
2018-10-01T01:40:50.434Z,15.04
2018-10-01T01:41:16.574Z,14.99
2018-10-01T01:41:42.708Z,14.99
2018-10-01T01:42:08.839Z,14.99
2018-10-01T01:42:34.968Z,15
2018-10-01T01:43:01.108Z,14.92
2018-10-01T01:43:27.240Z,14.92
2018-10-01T01:43:53.418Z,14.96
2018-10-01T01:44:19.554Z,14.82
2018-10-01T01:44:45.720Z,14.72
2018-10-01T01:45:11.862Z,14.84
2018-10-01T01:45:37.998Z,14.72
2018-10-01T01:46:04.125Z,14.82
2018-10-01T01:46:30.282Z,14.84
2018-10-01T01:46:56.435Z,14.81
2018-10-01T01:47:22.567Z,14.73
2018-10-01T01:47:48.699Z,14.69
2018-10-01T01:48:14.830Z,14.7
2018-10-01T01:48:40.958Z,14.78
2018-10-01T01:49:07.112Z,14.72
2018-10-01T01:49:33.246Z,14.77
2018-10-01T01:49:59.381Z,14.72
2018-10-01T01:50:25.539Z,14.77
2018-10-01T01:50:51.673Z,14.82
2018-10-01T01:51:17.807Z,14.78
2018-10-01T01:51:43.937Z,14.7
2018-10-01T01:52:10.070Z,14.7
2018-10-01T01:52:36.234Z,14.88
2018-10-01T01:53:02.386Z,14.73
2018-10-01T01:53:28.515Z,14.72
2018-10-01T01:53:54.653Z,14.73
2018-10-01T01:54:20.778Z,14.78
2018-10-01T01:54:46.914Z,14.65
2018-10-01T01:55:13.047Z,14.68
2018-10-01T01:55:39.182Z,14.69
2018-10-01T01:56:05.316Z,14.7
2018-10-01T01:56:31.455Z,14.59
2018-10-01T01:56:57.590Z,14.62
2018-10-01T01:57:23.726Z,14.62
2018-10-01T01:57:49.858Z,14.6
2018-10-01T01:58:15.995Z,14.65
2018-10-01T01:58:42.130Z,14.55
2018-10-01T01:59:08.261Z,14.54
2018-10-01T01:59:34.400Z,14.63
2018-10-01T02:00:00.553Z,14.62
2018-10-01T02:00:26.706Z,14.59
2018-10-01T02:00:52.842Z,14.58
2018-10-01T02:01:18.979Z,14.65
2018-10-01T02:01:45.110Z,14.65
2018-10-01T02:02:11.269Z,14.55
2018-10-01T02:02:37.406Z,14.7
2018-10-01T02:03:03.539Z,14.69
2018-10-01T02:03:29.673Z,14.68
2018-10-01T02:03:55.806Z,14.66
2018-10-01T02:04:21.934Z,14.69
2018-10-01T02:04:48.121Z,14.69
2018-10-01T02:05:14.253Z,14.69
2018-10-01T02:05:40.389Z,14.54
2018-10-01T02:06:06.522Z,14.63
2018-10-01T02:06:32.668Z,14.65
2018-10-01T02:06:58.825Z,14.6
2018-10-01T02:07:24.956Z,14.62
2018-10-01T02:07:51.094Z,14.59
2018-10-01T02:08:17.256Z,14.53
2018-10-01T02:08:43.384Z,14.55
2018-10-01T02:09:09.517Z,14.47
2018-10-01T02:09:35.669Z,14.53
2018-10-01T02:10:01.797Z,14.63
2018-10-01T02:10:27.931Z,14.63
2018-10-01T02:10:54.091Z,14.62
2018-10-01T02:11:20.217Z,14.54
2018-10-01T02:11:46.354Z,14.62
2018-10-01T02:12:12.514Z,14.63
2018-10-01T02:12:38.645Z,14.63
2018-10-01T02:13:04.780Z,14.63
2018-10-01T02:13:30.914Z,14.53
2018-10-01T02:13:57.044Z,14.47
2018-10-01T02:14:23.172Z,14.54
2018-10-01T02:14:49.339Z,14.55
2018-10-01T02:15:15.489Z,14.53
2018-10-01T02:15:41.622Z,14.5
2018-10-01T02:16:07.756Z,14.53
2018-10-01T02:16:33.916Z,14.5
2018-10-01T02:17:00.050Z,14.43
2018-10-01T02:17:26.178Z,14.48
2018-10-01T02:17:52.338Z,14.41
2018-10-01T02:18:18.466Z,14.48
2018-10-01T02:18:44.625Z,14.47
2018-10-01T02:19:10.754Z,14.48
2018-10-01T02:19:36.893Z,14.47
2018-10-01T02:20:03.027Z,14.51
2018-10-01T02:20:29.162Z,14.44
2018-10-01T02:20:55.285Z,14.48
2018-10-01T02:21:21.422Z,14.47
2018-10-01T02:21:47.549Z,14.47
2018-10-01T02:22:13.685Z,14.48
2018-10-01T02:22:39.842Z,14.53
2018-10-01T02:23:05.974Z,14.41
2018-10-01T02:23:32.107Z,14.48
2018-10-01T02:23:58.238Z,14.47
2018-10-01T02:24:24.385Z,14.41
2018-10-01T02:24:50.532Z,14.32
2018-10-01T02:25:16.663Z,14.37
2018-10-01T02:25:42.795Z,14.36
2018-10-01T02:26:08.952Z,14.4
2018-10-01T02:26:35.085Z,14.32
2018-10-01T02:27:01.214Z,14.37
2018-10-01T02:27:27.373Z,14.3
2018-10-01T02:27:53.508Z,14.45
2018-10-01T02:28:19.651Z,14.37
2018-10-01T02:28:45.788Z,14.32
2018-10-01T02:29:11.921Z,14.28
2018-10-01T02:29:38.056Z,14.15
2018-10-01T02:30:04.211Z,14.28
2018-10-01T02:30:30.344Z,14.23
2018-10-01T02:30:56.510Z,14.23
2018-10-01T02:31:22.657Z,14.25
2018-10-01T02:31:48.820Z,14.23
2018-10-01T02:32:14.947Z,14.26
2018-10-01T02:32:41.091Z,14.2
2018-10-01T02:33:07.223Z,14.11
2018-10-01T02:33:33.380Z,14.2
2018-10-01T02:33:59.516Z,14.26
2018-10-01T02:34:25.640Z,14.26
2018-10-01T02:34:51.795Z,14.26
2018-10-01T02:35:17.931Z,14.15
2018-10-01T02:35:44.130Z,14.11
2018-10-01T02:36:10.301Z,14.18
2018-10-01T02:36:36.465Z,14.22
2018-10-01T02:37:02.597Z,14.11
2018-10-01T02:37:28.731Z,14.17
2018-10-01T02:37:54.864Z,14.11
2018-10-01T02:38:21.012Z,14.22
2018-10-01T02:38:47.138Z,14.18
2018-10-01T02:39:13.307Z,14.12
2018-10-01T02:39:39.440Z,14.08
2018-10-01T02:40:05.569Z,14.15
2018-10-01T02:40:31.709Z,14.1
2018-10-01T02:40:57.864Z,14.15
2018-10-01T02:41:24.029Z,14.15
2018-10-01T02:41:50.181Z,14.11
2018-10-01T02:42:16.333Z,14.14
2018-10-01T02:42:42.466Z,14.07
2018-10-01T02:43:08.599Z,14.07
2018-10-01T02:43:34.736Z,13.96
2018-10-01T02:44:00.915Z,13.96
2018-10-01T02:44:27.067Z,13.97
2018-10-01T02:44:53.193Z,14
2018-10-01T02:45:19.341Z,14
2018-10-01T02:45:45.496Z,14.03
2018-10-01T02:46:11.631Z,14.03
2018-10-01T02:46:37.765Z,13.96
2018-10-01T02:47:03.919Z,14
2018-10-01T02:47:30.068Z,14.1
2018-10-01T02:47:56.209Z,14.11
2018-10-01T02:48:22.411Z,14.1
2018-10-01T02:48:48.566Z,14.08
2018-10-01T02:49:14.743Z,14.1
2018-10-01T02:49:40.875Z,14.11
2018-10-01T02:50:07.056Z,14.15
2018-10-01T02:50:33.204Z,14.11
2018-10-01T02:50:59.364Z,14.08
2018-10-01T02:51:25.519Z,13.97
2018-10-01T02:51:51.649Z,14.11
2018-10-01T02:52:17.814Z,13.97
2018-10-01T02:52:43.960Z,14.08
2018-10-01T02:53:10.120Z,13.99
2018-10-01T02:53:36.271Z,14.04
2018-10-01T02:54:02.449Z,14
2018-10-01T02:54:28.582Z,14
2018-10-01T02:54:54.720Z,13.93
2018-10-01T02:55:20.867Z,14.04
2018-10-01T02:55:47.024Z,13.95
2018-10-01T02:56:13.175Z,13.99
2018-10-01T02:56:39.321Z,13.86
2018-10-01T02:57:05.485Z,13.86
2018-10-01T02:57:31.616Z,13.95
2018-10-01T02:57:57.754Z,13.87
2018-10-01T02:58:23.907Z,13.92
2018-10-01T02:58:50.078Z,13.96
2018-10-01T02:59:16.217Z,13.9
2018-10-01T02:59:42.348Z,13.87
2018-10-01T03:00:08.491Z,13.9
2018-10-01T03:00:34.646Z,13.97
2018-10-01T03:01:00.798Z,13.89
2018-10-01T03:01:26.961Z,13.97
2018-10-01T03:01:53.118Z,13.95
2018-10-01T03:02:19.291Z,13.81
2018-10-01T03:02:45.421Z,13.89
2018-10-01T03:03:11.591Z,13.89
2018-10-01T03:03:37.713Z,13.86
2018-10-01T03:04:03.869Z,13.78
2018-10-01T03:04:30.024Z,13.79
2018-10-01T03:04:56.154Z,13.81
2018-10-01T03:05:22.308Z,13.79
2018-10-01T03:05:48.471Z,13.86
2018-10-01T03:06:14.598Z,13.86
2018-10-01T03:06:40.745Z,13.93
2018-10-01T03:07:06.943Z,13.85
2018-10-01T03:07:33.113Z,13.85
2018-10-01T03:07:59.249Z,13.92
2018-10-01T03:08:25.376Z,13.85
2018-10-01T03:08:51.539Z,13.86
2018-10-01T03:09:17.678Z,13.75
2018-10-01T03:09:43.811Z,13.77
2018-10-01T03:10:09.939Z,13.6
2018-10-01T03:10:36.074Z,13.62
2018-10-01T03:11:02.226Z,13.6
2018-10-01T03:11:28.368Z,13.65
2018-10-01T03:11:54.490Z,13.63
2018-10-01T03:12:20.631Z,13.7
2018-10-01T03:12:46.802Z,13.6
2018-10-01T03:13:12.974Z,13.68
2018-10-01T03:13:39.110Z,13.7
2018-10-01T03:14:05.270Z,13.77
2018-10-01T03:14:31.432Z,13.72
2018-10-01T03:14:57.565Z,13.6
2018-10-01T03:15:23.718Z,13.62
2018-10-01T03:15:49.852Z,13.6
2018-10-01T03:16:16.010Z,13.68
2018-10-01T03:16:42.142Z,13.67
2018-10-01T03:17:08.324Z,13.7
2018-10-01T03:17:34.453Z,13.63
2018-10-01T03:18:00.585Z,13.7
2018-10-01T03:18:26.743Z,13.65
2018-10-01T03:18:52.914Z,13.68
2018-10-01T03:19:19.023Z,13.6
2018-10-01T03:19:45.181Z,13.62
2018-10-01T03:20:11.314Z,13.71
2018-10-01T03:20:37.467Z,13.67
2018-10-01T03:21:03.605Z,13.6
2018-10-01T03:21:29.726Z,13.6
2018-10-01T03:21:55.864Z,13.67
2018-10-01T03:22:21.992Z,13.7
2018-10-01T03:22:48.130Z,13.67
2018-10-01T03:23:14.259Z,13.62
2018-10-01T03:23:40.417Z,13.6
2018-10-01T03:24:06.552Z,13.71
2018-10-01T03:24:32.729Z,13.62
2018-10-01T03:24:58.864Z,13.68
2018-10-01T03:25:24.995Z,13.63
2018-10-01T03:25:51.173Z,13.74
2018-10-01T03:26:17.313Z,13.7
2018-10-01T03:26:43.467Z,13.77
2018-10-01T03:27:09.603Z,13.72
2018-10-01T03:27:35.791Z,13.75
2018-10-01T03:28:01.934Z,13.68
2018-10-01T03:28:28.108Z,13.65
2018-10-01T03:28:54.282Z,13.68
2018-10-01T03:29:20.446Z,13.67
2018-10-01T03:29:46.624Z,13.7
2018-10-01T03:30:12.802Z,13.63
2018-10-01T03:30:38.970Z,13.6
2018-10-01T03:31:05.130Z,13.68
2018-10-01T03:31:31.258Z,13.59
2018-10-01T03:31:57.435Z,13.6
2018-10-01T03:32:23.607Z,13.67
2018-10-01T03:32:49.765Z,13.68
2018-10-01T03:33:15.888Z,13.67
2018-10-01T03:33:42.043Z,13.67
2018-10-01T03:34:08.179Z,13.62
2018-10-01T03:34:34.320Z,13.52
2018-10-01T03:35:00.452Z,13.57
2018-10-01T03:35:26.588Z,13.6
2018-10-01T03:35:52.765Z,13.62
2018-10-01T03:36:18.917Z,13.7
2018-10-01T03:36:45.051Z,13.57
2018-10-01T03:37:11.186Z,13.57
2018-10-01T03:37:37.318Z,13.59
2018-10-01T03:38:03.497Z,13.54
2018-10-01T03:38:29.646Z,13.52
2018-10-01T03:38:55.795Z,13.54
2018-10-01T03:39:21.966Z,13.53
2018-10-01T03:39:48.104Z,13.47
2018-10-01T03:40:14.301Z,13.39
2018-10-01T03:40:40.393Z,13.33
2018-10-01T03:41:06.530Z,13.38
2018-10-01T03:41:32.681Z,13.35
2018-10-01T03:41:58.863Z,13.37
2018-10-01T03:42:24.999Z,13.44
2018-10-01T03:42:51.130Z,13.46
2018-10-01T03:43:17.260Z,13.38
2018-10-01T03:43:43.416Z,13.33
2018-10-01T03:44:09.599Z,13.3
2018-10-01T03:44:35.781Z,13.31
2018-10-01T03:45:01.915Z,13.39
2018-10-01T03:45:28.067Z,13.39
2018-10-01T03:45:54.196Z,13.31
2018-10-01T03:46:20.362Z,13.33
2018-10-01T03:46:46.517Z,13.31
2018-10-01T03:47:12.642Z,13.39
2018-10-01T03:47:38.777Z,13.39
2018-10-01T03:48:04.939Z,13.42
2018-10-01T03:48:31.072Z,13.38
2018-10-01T03:48:57.204Z,13.3
2018-10-01T03:49:23.342Z,13.27
2018-10-01T03:49:49.477Z,13.22
2018-10-01T03:50:15.677Z,13.3
2018-10-01T03:50:41.804Z,13.28
2018-10-01T03:51:07.941Z,13.23
2018-10-01T03:51:34.083Z,13.33
2018-10-01T03:52:00.231Z,13.3
2018-10-01T03:52:26.361Z,13.2
2018-10-01T03:52:52.494Z,13.27
2018-10-01T03:53:18.673Z,13.25
2018-10-01T03:53:44.803Z,13.23
2018-10-01T03:54:10.992Z,13.16
2018-10-01T03:54:37.132Z,13.12
2018-10-01T03:55:03.277Z,13.19
2018-10-01T03:55:29.460Z,13.11
2018-10-01T03:55:55.607Z,13.16
2018-10-01T03:56:21.764Z,13.16
2018-10-01T03:56:47.940Z,13.16
2018-10-01T03:57:14.098Z,13.01
2018-10-01T03:57:40.230Z,13.04
2018-10-01T03:58:06.394Z,13.04
2018-10-01T03:58:32.544Z,12.97
2018-10-01T03:58:58.684Z,12.94
2018-10-01T03:59:24.813Z,12.98
2018-10-01T03:59:50.973Z,12.87
2018-10-01T04:00:17.105Z,12.95
2018-10-01T04:00:43.240Z,12.98
2018-10-01T04:01:09.369Z,12.87
2018-10-01T04:01:35.495Z,12.87
2018-10-01T04:02:01.633Z,12.82
2018-10-01T04:02:27.797Z,12.97
2018-10-01T04:02:53.976Z,12.85
2018-10-01T04:03:20.117Z,12.85
2018-10-01T04:03:46.299Z,12.83
2018-10-01T04:04:12.435Z,12.78
2018-10-01T04:04:38.570Z,12.79
2018-10-01T04:05:04.730Z,12.8
2018-10-01T04:05:30.884Z,12.85
2018-10-01T04:05:57.038Z,12.9
2018-10-01T04:06:23.220Z,12.91
2018-10-01T04:06:49.372Z,12.93
2018-10-01T04:07:15.529Z,12.98
2018-10-01T04:07:41.683Z,12.94
2018-10-01T04:08:07.843Z,12.97
2018-10-01T04:08:33.980Z,13
2018-10-01T04:09:00.210Z,13.04
2018-10-01T04:09:26.284Z,13.08
2018-10-01T04:09:52.426Z,13.08
2018-10-01T04:10:18.578Z,13.13
2018-10-01T04:10:44.706Z,13.12
2018-10-01T04:11:10.888Z,13.11
2018-10-01T04:11:37.036Z,13.12
2018-10-01T04:12:03.245Z,13.09
2018-10-01T04:12:29.376Z,13.05
2018-10-01T04:12:55.529Z,12.95
2018-10-01T04:13:21.690Z,12.98
2018-10-01T04:13:47.892Z,13.05
2018-10-01T04:14:14.052Z,13.03
2018-10-01T04:14:40.212Z,13
2018-10-01T04:15:06.394Z,12.93
2018-10-01T04:15:32.551Z,12.85
2018-10-01T04:15:58.711Z,12.82
2018-10-01T04:16:24.841Z,12.93
2018-10-01T04:16:51.000Z,12.98
2018-10-01T04:17:17.177Z,12.87
2018-10-01T04:17:43.308Z,12.98
2018-10-01T04:18:09.458Z,12.94
2018-10-01T04:18:35.658Z,12.97
2018-10-01T04:19:01.797Z,12.97
2018-10-01T04:19:27.974Z,13
2018-10-01T04:19:54.100Z,13.03
2018-10-01T04:20:20.245Z,13.08
2018-10-01T04:20:46.402Z,13.09
2018-10-01T04:21:12.562Z,12.98
2018-10-01T04:21:38.688Z,13.05
2018-10-01T04:22:04.817Z,12.93
2018-10-01T04:22:30.954Z,12.94
2018-10-01T04:22:57.090Z,12.78
2018-10-01T04:23:23.241Z,12.8
2018-10-01T04:23:49.382Z,12.93
2018-10-01T04:24:15.510Z,12.94
2018-10-01T04:24:41.664Z,12.87
2018-10-01T04:25:07.825Z,13
2018-10-01T04:25:33.957Z,12.94
2018-10-01T04:26:00.095Z,12.94
2018-10-01T04:26:26.242Z,12.97
2018-10-01T04:26:52.391Z,12.9
2018-10-01T04:27:18.531Z,12.83
2018-10-01T04:27:44.659Z,12.85
2018-10-01T04:28:10.862Z,12.97
2018-10-01T04:28:36.994Z,12.98
2018-10-01T04:29:03.155Z,12.94
2018-10-01T04:29:29.291Z,12.97
2018-10-01T04:29:55.426Z,12.94
2018-10-01T04:30:21.584Z,12.98
2018-10-01T04:30:47.741Z,13
2018-10-01T04:31:13.870Z,12.94
2018-10-01T04:31:40.002Z,12.86
2018-10-01T04:32:06.160Z,12.9
2018-10-01T04:32:32.287Z,12.97
2018-10-01T04:32:58.421Z,12.94
2018-10-01T04:33:24.551Z,12.9
2018-10-01T04:33:50.703Z,12.87
2018-10-01T04:34:16.833Z,12.79
2018-10-01T04:34:42.963Z,12.82
2018-10-01T04:35:09.102Z,12.8
2018-10-01T04:35:35.235Z,12.72
2018-10-01T04:36:01.394Z,12.86
2018-10-01T04:36:27.536Z,12.79
2018-10-01T04:36:53.672Z,12.83
2018-10-01T04:37:19.810Z,12.82
2018-10-01T04:37:45.941Z,12.82
2018-10-01T04:38:12.073Z,12.82
2018-10-01T04:38:38.237Z,12.87
2018-10-01T04:39:04.361Z,12.87
2018-10-01T04:39:30.495Z,12.82
2018-10-01T04:39:56.627Z,12.82
2018-10-01T04:40:22.761Z,12.86
2018-10-01T04:40:48.960Z,12.85
2018-10-01T04:41:15.068Z,12.82
2018-10-01T04:41:41.199Z,12.97
2018-10-01T04:42:07.336Z,12.98
2018-10-01T04:42:33.469Z,12.94
2018-10-01T04:42:59.604Z,12.91
2018-10-01T04:43:25.739Z,12.93
2018-10-01T04:43:51.860Z,13.03
2018-10-01T04:44:17.993Z,13.03
2018-10-01T04:44:44.181Z,12.97
2018-10-01T04:45:10.365Z,12.97
2018-10-01T04:45:36.494Z,12.91
2018-10-01T04:46:02.629Z,12.87
2018-10-01T04:46:28.757Z,12.98
2018-10-01T04:46:55.027Z,12.94
2018-10-01T04:47:21.045Z,12.86
2018-10-01T04:47:47.183Z,12.91
2018-10-01T04:48:13.341Z,12.97
2018-10-01T04:48:39.467Z,12.9
2018-10-01T04:49:05.599Z,12.9
2018-10-01T04:49:31.762Z,12.94
2018-10-01T04:49:57.895Z,12.97
2018-10-01T04:50:24.041Z,12.93
2018-10-01T04:50:50.171Z,12.95
2018-10-01T04:51:16.306Z,12.95
2018-10-01T04:51:42.463Z,12.97
2018-10-01T04:52:08.614Z,13
2018-10-01T04:52:34.750Z,13.05
2018-10-01T04:53:00.902Z,12.94
2018-10-01T04:53:27.054Z,12.98
2018-10-01T04:53:53.188Z,12.94
2018-10-01T04:54:19.320Z,12.91
2018-10-01T04:54:45.456Z,12.95
2018-10-01T04:55:11.591Z,12.97
2018-10-01T04:55:37.774Z,13
2018-10-01T04:56:03.936Z,12.91
2018-10-01T04:56:30.089Z,12.94
2018-10-01T04:56:56.244Z,12.95
2018-10-01T04:57:22.371Z,13
2018-10-01T04:57:48.512Z,12.94
2018-10-01T04:58:14.731Z,13
2018-10-01T04:58:40.924Z,13
2018-10-01T04:59:06.953Z,12.97
2018-10-01T04:59:33.092Z,12.95
2018-10-01T04:59:59.216Z,12.95
2018-10-01T05:00:25.378Z,13.03
2018-10-01T05:00:51.526Z,13.01
2018-10-01T05:01:17.663Z,13.05
2018-10-01T05:01:43.797Z,13.04
2018-10-01T05:02:09.957Z,13.03
2018-10-01T05:02:36.090Z,13.03
2018-10-01T05:03:02.218Z,13.03
2018-10-01T05:03:28.349Z,13.04
2018-10-01T05:03:54.479Z,13.09
2018-10-01T05:04:20.606Z,13.09
2018-10-01T05:04:46.739Z,13.09
2018-10-01T05:05:12.870Z,12.95
2018-10-01T05:05:39.006Z,13.04
2018-10-01T05:06:05.203Z,13.04
2018-10-01T05:06:31.306Z,13.08
2018-10-01T05:06:57.437Z,13.04
2018-10-01T05:07:23.572Z,13.01
2018-10-01T05:07:49.710Z,13.05
2018-10-01T05:08:15.844Z,13.05
2018-10-01T05:08:41.969Z,12.97
2018-10-01T05:09:08.132Z,12.94
2018-10-01T05:09:34.260Z,12.93
2018-10-01T05:10:00.391Z,12.95
2018-10-01T05:10:26.535Z,12.85
2018-10-01T05:10:52.689Z,12.91
2018-10-01T05:11:18.819Z,12.86
2018-10-01T05:11:44.953Z,12.97
2018-10-01T05:12:11.103Z,12.87
2018-10-01T05:12:37.235Z,12.97
2018-10-01T05:13:03.374Z,12.95
2018-10-01T05:13:29.498Z,12.97
2018-10-01T05:13:55.654Z,12.93
2018-10-01T05:14:21.806Z,12.95
2018-10-01T05:14:48.039Z,12.97
2018-10-01T05:15:14.093Z,12.98
2018-10-01T05:15:40.225Z,12.97
2018-10-01T05:16:06.357Z,12.95
2018-10-01T05:16:32.494Z,12.87
2018-10-01T05:16:58.623Z,12.82
2018-10-01T05:17:24.759Z,12.93
2018-10-01T05:17:50.889Z,12.9
2018-10-01T05:18:17.017Z,12.9
2018-10-01T05:18:43.154Z,12.93
2018-10-01T05:19:09.287Z,12.98
2018-10-01T05:19:35.469Z,12.93
2018-10-01T05:20:01.651Z,12.98
2018-10-01T05:20:27.787Z,12.85
2018-10-01T05:20:53.912Z,12.94
2018-10-01T05:21:20.074Z,12.97
2018-10-01T05:21:46.198Z,12.95
2018-10-01T05:22:12.352Z,12.93
2018-10-01T05:22:38.486Z,12.94
2018-10-01T05:23:04.616Z,12.94
2018-10-01T05:23:30.752Z,12.94
2018-10-01T05:23:56.890Z,12.94
2018-10-01T05:24:23.025Z,12.97
2018-10-01T05:24:49.161Z,12.91
2018-10-01T05:25:15.302Z,12.97
2018-10-01T05:25:41.462Z,12.94
2018-10-01T05:26:07.612Z,12.94
2018-10-01T05:26:33.783Z,12.91
2018-10-01T05:26:59.925Z,12.91
2018-10-01T05:27:26.052Z,12.91
2018-10-01T05:27:52.182Z,12.94
2018-10-01T05:28:18.336Z,12.91
2018-10-01T05:28:44.469Z,12.93
2018-10-01T05:29:10.602Z,12.91
2018-10-01T05:29:36.732Z,12.82
2018-10-01T05:30:02.888Z,12.86
2018-10-01T05:30:29.040Z,12.83
2018-10-01T05:30:55.198Z,12.85
2018-10-01T05:31:21.328Z,12.82
2018-10-01T05:31:47.508Z,12.68
2018-10-01T05:32:13.648Z,12.68
2018-10-01T05:32:39.776Z,12.82
2018-10-01T05:33:05.908Z,12.78
2018-10-01T05:33:32.044Z,12.72
2018-10-01T05:33:58.201Z,12.67
2018-10-01T05:34:24.359Z,12.65
2018-10-01T05:34:50.501Z,12.7
2018-10-01T05:35:16.675Z,12.68
2018-10-01T05:35:42.811Z,12.62
2018-10-01T05:36:08.942Z,12.72
2018-10-01T05:36:35.072Z,12.7
2018-10-01T05:37:01.209Z,12.62
2018-10-01T05:37:27.336Z,12.62
2018-10-01T05:37:53.532Z,12.62
2018-10-01T05:38:19.670Z,12.62